Time;durP1;ratioP1;P1;durP2;ratioP2;P2;SDS_P1;SDS_P2;PMS_P1;PMS_P2;Temp;Humidity;BMP_temperature;BMP_pressure;BME280_temperature;BME280_humidity;BME280_pressure;Samples;Min_cycle;Max_cycle;Signal;HPM_P1;HPM_P2
2023/10/13 00:01:23;;;;;;;;;;;16.90;98.70;;;;;;5111777;28;19908;-70
2023/10/13 00:03:51;;;;;;;;;;;16.90;98.60;;;;;;5111827;27;20375;-70
2023/10/13 00:06:18;;;;;;;;;;;16.90;98.80;;;;;;5111729;28;19916;-70
2023/10/13 00:08:43;;;;;;;;;;;16.90;98.80;;;;;;5105089;27;19915;-70
2023/10/13 00:11:15;;;;;;;;;;;16.90;98.90;;;;;;5112499;27;19912;-70
2023/10/13 00:13:50;;;;;;;;;;;16.90;98.80;;;;;;5101284;28;20065;-70
2023/10/13 00:16:22;;;;;;;;;;;16.90;98.80;;;;;;5111205;28;19912;-70
2023/10/13 00:18:50;;;;;;;;;;;16.90;98.80;;;;;;5103445;28;20309;-70
2023/10/13 00:21:20;;;;;;;;;;;16.90;98.80;;;;;;5111496;28;19912;-70
2023/10/13 00:23:54;;;;;;;;;;;16.90;98.90;;;;;;5111787;27;19918;-70
2023/10/13 00:26:23;;;;;;;;;;;16.90;98.70;;;;;;5116339;27;19989;-70
2023/10/13 00:28:58;;;;;;;;;;;16.90;99.00;;;;;;5111316;28;19976;-70
2023/10/13 00:31:26;;;;;;;;;;;16.90;99.00;;;;;;5111472;28;20329;-70
2023/10/13 00:33:55;;;;;;;;;;;16.90;98.70;;;;;;5111349;28;19915;-70
2023/10/13 00:36:21;;;;;;;;;;;16.90;99.00;;;;;;5111268;28;20384;-70
2023/10/13 00:38:49;;;;;;;;;;;16.90;99.00;;;;;;5104387;27;19915;-71
2023/10/13 00:41:16;;;;;;;;;;;16.90;99.00;;;;;;5104246;28;20343;-70
2023/10/13 00:44:03;;;;;;;;;;;16.90;99.00;;;;;;5125329;27;19911;-70
2023/10/13 00:46:33;;;;;;;;;;;16.90;99.20;;;;;;5108086;27;19935;-70
2023/10/13 00:48:59;;;;;;;;;;;16.90;99.00;;;;;;5102173;28;19951;-71
2023/10/13 00:51:40;;;;;;;;;;;17.00;99.10;;;;;;5112347;27;19947;-71
2023/10/13 00:54:12;;;;;;;;;;;17.00;99.10;;;;;;5103101;28;19916;-71
2023/10/13 00:57:26;;;;;;;;;;;16.90;99.10;;;;;;5110849;28;19950;-70
2023/10/13 00:59:27;;;;;;;;;;;17.00;98.90;;;;;;5110036;28;19998;-70
2023/10/13 01:01:55;;;;;;;;;;;17.00;99.00;;;;;;5110880;28;20633;-71
2023/10/13 01:04:23;;;;;;;;;;;17.00;99.10;;;;;;5110067;28;19950;-71
2023/10/13 01:06:48;;;;;;;;;;;17.00;99.10;;;;;;5111447;27;19912;-70
2023/10/13 01:09:16;;;;;;;;;;;17.00;99.00;;;;;;5116866;27;19957;-70
2023/10/13 01:11:52;;;;;;;;;;;17.00;99.10;;;;;;5110439;27;20432;-70
2023/10/13 01:14:18;;;;;;;;;;;16.90;99.00;;;;;;5116870;27;19907;-70
2023/10/13 01:16:44;;;;;;;;;;;16.90;98.90;;;;;;5112347;27;19920;-70
2023/10/13 01:19:12;;;;;;;;;;;16.90;98.90;;;;;;5110597;28;19915;-70
2023/10/13 01:21:40;;;;;;;;;;;17.00;99.00;;;;;;5110488;28;19950;-70
2023/10/13 01:24:07;;;;;;;;;;;16.90;99.00;;;;;;5110662;28;19960;-71
2023/10/13 01:26:39;;;;;;;;;;;16.90;99.00;;;;;;5099254;27;19912;-70
2023/10/13 01:29:12;;;;;;;;;;;16.90;98.90;;;;;;5102657;28;19978;-70
2023/10/13 01:31:47;;;;;;;;;;;17.00;99.10;;;;;;5112015;27;19913;-71
2023/10/13 01:34:22;;;;;;;;;;;17.00;99.10;;;;;;5114938;27;19911;-71
2023/10/13 01:36:50;;;;;;;;;;;17.00;99.10;;;;;;5110310;28;19968;-70
2023/10/13 01:39:20;;;;;;;;;;;17.00;99.20;;;;;;5108971;28;19912;-71
2023/10/13 01:41:46;;;;;;;;;;;17.00;99.20;;;;;;5108615;28;19912;-71
2023/10/13 01:44:11;;;;;;;;;;;17.00;99.10;;;;;;5118764;27;19912;-71
2023/10/13 01:46:37;;;;;;;;;;;17.00;99.00;;;;;;5110343;28;19937;-71
2023/10/13 01:49:03;;;;;;;;;;;17.00;98.90;;;;;;5110201;28;20459;-70
2023/10/13 01:51:29;;;;;;;;;;;17.00;99.00;;;;;;5108758;28;19927;-70
2023/10/13 01:53:57;;;;;;;;;;;17.00;99.00;;;;;;5112946;28;19912;-70
2023/10/13 01:56:23;;;;;;;;;;;17.00;99.00;;;;;;5112970;27;19960;-71
2023/10/13 01:58:49;;;;;;;;;;;17.00;99.00;;;;;;5119001;27;19961;-71
2023/10/13 02:01:26;;;;;;;;;;;17.00;99.10;;;;;;5110657;28;20007;-71
2023/10/13 02:04:04;;;;;;;;;;;17.00;98.90;;;;;;5112447;27;19915;-71
2023/10/13 02:06:33;;;;;;;;;;;17.00;99.00;;;;;;5118823;27;19966;-71
2023/10/13 02:09:25;;;;;;;;;;;17.00;99.20;;;;;;5109523;28;19930;-70
2023/10/13 02:11:54;;;;;;;;;;;17.00;99.10;;;;;;5110122;28;19981;-71
2023/10/13 02:14:22;;;;;;;;;;;17.00;99.00;;;;;;5110142;28;19919;-70
2023/10/13 02:16:50;;;;;;;;;;;17.00;99.10;;;;;;5109988;28;19923;-70
2023/10/13 02:19:19;;;;;;;;;;;17.00;99.00;;;;;;5112875;28;19954;-70
2023/10/13 02:21:45;;;;;;;;;;;17.00;99.10;;;;;;5113888;28;19964;-70
2023/10/13 02:24:15;;;;;;;;;;;17.00;99.20;;;;;;5112824;28;20292;-71
2023/10/13 02:26:43;;;;;;;;;;;17.00;99.20;;;;;;5103713;27;20372;-70
2023/10/13 02:29:17;;;;;;;;;;;17.00;99.10;;;;;;5118124;27;19912;-70
2023/10/13 02:31:55;;;;;;;;;;;17.00;99.10;;;;;;5109072;27;19912;-70
2023/10/13 02:34:22;;;;;;;;;;;17.00;99.00;;;;;;5113778;28;19912;-70
2023/10/13 02:36:57;;;;;;;;;;;17.00;99.00;;;;;;5113776;28;20428;-70
2023/10/13 02:39:26;;;;;;;;;;;17.00;99.00;;;;;;5114020;28;19915;-70
2023/10/13 02:41:53;;;;;;;;;;;17.00;99.10;;;;;;5113828;28;19911;-70
2023/10/13 02:44:27;;;;;;;;;;;17.00;99.10;;;;;;5113946;27;19907;-70
2023/10/13 02:46:55;;;;;;;;;;;17.00;99.00;;;;;;5113584;28;19912;-70
2023/10/13 02:49:26;;;;;;;;;;;17.00;98.90;;;;;;5113704;28;19923;-70
2023/10/13 02:51:52;;;;;;;;;;;17.00;98.90;;;;;;5113650;28;19907;-70
2023/10/13 02:54:18;;;;;;;;;;;17.00;99.20;;;;;;5112870;27;19972;-70
2023/10/13 02:56:57;;;;;;;;;;;17.00;99.10;;;;;;5116472;27;20365;-70
2023/10/13 02:59:38;;;;;;;;;;;17.00;99.10;;;;;;5107644;28;19912;-70
2023/10/13 03:02:58;;;;;;;;;;;17.00;99.20;;;;;;5121700;27;19911;-70
2023/10/13 03:05:09;;;;;;;;;;;17.00;99.10;;;;;;5103824;27;19915;-70
2023/10/13 03:07:36;;;;;;;;;;;17.00;99.10;;;;;;5113457;28;19908;-70
2023/10/13 03:10:09;;;;;;;;;;;17.00;99.10;;;;;;5113307;28;19916;-70
2023/10/13 03:12:35;;;;;;;;;;;17.00;99.10;;;;;;5113120;28;19918;-71
2023/10/13 03:15:22;;;;;;;;;;;17.00;99.20;;;;;;5115411;27;19911;-70
2023/10/13 03:17:48;;;;;;;;;;;17.00;99.20;;;;;;5112939;28;19963;-70
2023/10/13 03:20:15;;;;;;;;;;;16.90;99.20;;;;;;5113395;28;20398;-70
2023/10/13 03:22:44;;;;;;;;;;;17.00;99.20;;;;;;5111434;28;19907;-70
2023/10/13 03:25:24;;;;;;;;;;;16.90;99.10;;;;;;5111570;28;19907;-70
2023/10/13 03:30:20;;;;;;;;;;;17.00;99.00;;;;;;5120169;27;19996;-70
2023/10/13 03:32:47;;;;;;;;;;;17.00;99.10;;;;;;5112527;28;19995;-70
2023/10/13 03:35:14;;;;;;;;;;;17.00;99.10;;;;;;5112167;28;20027;-70
2023/10/13 03:37:40;;;;;;;;;;;17.00;99.00;;;;;;5120870;27;19914;-70
2023/10/13 03:43:04;;;;;;;;;;;16.90;98.90;;;;;;5111920;28;19966;-70
2023/10/13 03:45:39;;;;;;;;;;;17.00;99.00;;;;;;5118803;27;19911;-70
2023/10/13 03:48:09;;;;;;;;;;;16.90;99.00;;;;;;5102840;28;20324;-70
2023/10/13 03:50:36;;;;;;;;;;;16.90;99.10;;;;;;5111763;28;19920;-70
2023/10/13 03:53:02;;;;;;;;;;;16.90;99.10;;;;;;5112354;28;20520;-70
2023/10/13 03:55:28;;;;;;;;;;;16.90;99.10;;;;;;5111814;28;19912;-70
2023/10/13 03:57:54;;;;;;;;;;;16.90;99.10;;;;;;5111882;27;19961;-70
2023/10/13 04:00:26;;;;;;;;;;;16.90;99.10;;;;;;5112041;28;19907;-71
2023/10/13 04:03:17;;;;;;;;;;;16.90;99.20;;;;;;5120191;27;19981;-70
2023/10/13 04:05:46;;;;;;;;;;;16.90;99.20;;;;;;5108296;28;19912;-70
2023/10/13 04:32:28;;;;;;;;;;;16.90;99.10;;;;;;5111428;28;20053;-71
2023/10/13 04:35:08;;;;;;;;;;;16.90;99.20;;;;;;5111232;28;19912;-70
2023/10/13 04:37:48;;;;;;;;;;;16.90;99.20;;;;;;5111449;27;19912;-70
2023/10/13 04:40:14;;;;;;;;;;;16.90;99.20;;;;;;5104797;28;19907;-70
2023/10/13 04:42:49;;;;;;;;;;;16.90;99.20;;;;;;5111019;28;19911;-70
2023/10/13 04:48:17;;;;;;;;;;;16.90;99.10;;;;;;5111247;28;19940;-70
2023/10/13 04:50:59;;;;;;;;;;;16.90;99.10;;;;;;5110732;28;19922;-70
2023/10/13 04:53:33;;;;;;;;;;;16.90;99.10;;;;;;5111135;28;19915;-70
2023/10/13 04:56:38;;;;;;;;;;;16.90;99.10;;;;;;5111235;28;19998;-70
2023/10/13 06:31:06;;;;;;;;;;;17.10;99.90;;;;;;5100485;28;19942;-71
2023/10/13 06:33:34;;;;;;;;;;;17.10;99.90;;;;;;5109073;28;19919;-70
2023/10/13 06:36:09;;;;;;;;;;;17.10;99.90;;;;;;5108836;28;20421;-71
2023/10/13 06:38:37;;;;;;;;;;;17.10;99.90;;;;;;5107788;28;19924;-71
2023/10/13 06:41:05;;;;;;;;;;;17.10;99.90;;;;;;5112795;28;20369;-71
2023/10/13 06:43:40;;;;;;;;;;;17.10;99.90;;;;;;5114061;27;19912;-70
2023/10/13 06:46:14;;;;;;;;;;;17.10;99.90;;;;;;5109076;28;20597;-70
2023/10/13 06:48:40;;;;;;;;;;;17.10;99.90;;;;;;5105647;28;19912;-70
2023/10/13 06:51:18;;;;;;;;;;;17.20;99.90;;;;;;5109195;28;19965;-70
2023/10/13 06:53:46;;;;;;;;;;;17.10;99.90;;;;;;5108445;28;19908;-71
2023/10/13 06:56:16;;;;;;;;;;;17.10;99.90;;;;;;5113462;27;19915;-71
2023/10/13 06:58:46;;;;;;;;;;;17.20;99.90;;;;;;5117146;27;19930;-71
2023/10/13 07:01:21;;;;;;;;;;;17.20;99.90;;;;;;5109290;28;20002;-70
2023/10/13 07:03:52;;;;;;;;;;;17.20;99.80;;;;;;5109415;28;19961;-71
2023/10/13 07:06:19;;;;;;;;;;;17.20;99.80;;;;;;5110206;28;19950;-71
2023/10/13 07:08:51;;;;;;;;;;;17.20;99.90;;;;;;5112381;28;19938;-71
2023/10/13 07:11:42;;;;;;;;;;;17.20;99.80;;;;;;5117889;27;19965;-71
2023/10/13 07:14:10;;;;;;;;;;;17.20;99.90;;;;;;5112803;28;20369;-71
2023/10/13 07:16:46;;;;;;;;;;;17.20;99.90;;;;;;5112357;28;20252;-71
2023/10/13 07:19:16;;;;;;;;;;;17.30;99.80;;;;;;5112066;27;19908;-71
2023/10/13 07:21:45;;;;;;;;;;;17.30;99.90;;;;;;5113224;28;20230;-70
2023/10/13 07:24:15;;;;;;;;;;;17.30;99.90;;;;;;5111310;28;19955;-70
2023/10/13 07:26:47;;;;;;;;;;;17.30;99.90;;;;;;5119645;27;19912;-70
2023/10/13 07:29:14;;;;;;;;;;;17.30;99.90;;;;;;5112160;28;19916;-70
2023/10/13 07:31:41;;;;;;;;;;;17.40;99.90;;;;;;5112546;28;19958;-70
2023/10/13 07:34:20;;;;;;;;;;;17.40;99.90;;;;;;5111124;28;20466;-70
2023/10/13 07:36:46;;;;;;;;;;;17.40;99.80;;;;;;5120921;27;19923;-70
2023/10/13 07:39:24;;;;;;;;;;;17.40;99.80;;;;;;5112120;28;20420;-70
2023/10/13 07:41:54;;;;;;;;;;;17.50;99.80;;;;;;5112489;28;19919;-70
2023/10/13 07:44:24;;;;;;;;;;;17.40;99.70;;;;;;5112179;28;19939;-70
2023/10/13 07:46:58;;;;;;;;;;;17.50;99.60;;;;;;5111414;28;19908;-70
2023/10/13 07:49:31;;;;;;;;;;;17.50;99.60;;;;;;5110491;28;19912;-70
2023/10/13 07:52:58;;;;;;;;;;;17.50;99.60;;;;;;5111904;28;19933;-70
2023/10/13 07:54:49;;;;;;;;;;;17.50;99.50;;;;;;5106207;28;20297;-70
2023/10/13 07:57:15;;;;;;;;;;;17.50;99.70;;;;;;5112388;28;19915;-70
2023/10/13 07:59:48;;;;;;;;;;;17.60;99.50;;;;;;5110795;28;19912;-70
2023/10/13 08:02:33;;;;;;;;;;;17.60;99.60;;;;;;5112447;28;19915;-70
2023/10/13 08:04:59;;;;;;;;;;;17.60;99.50;;;;;;5110635;27;20372;-70
2023/10/13 08:07:28;;;;;;;;;;;17.60;99.60;;;;;;5118398;27;19908;-70
2023/10/13 08:09:54;;;;;;;;;;;17.60;99.50;;;;;;5113652;27;19923;-70
2023/10/13 08:12:21;;;;;;;;;;;17.60;99.70;;;;;;5120696;27;20384;-70
2023/10/13 08:14:47;;;;;;;;;;;17.60;99.60;;;;;;5111630;28;19960;-71
2023/10/13 08:17:13;;;;;;;;;;;17.60;99.50;;;;;;5110264;28;19911;-71
2023/10/13 08:19:44;;;;;;;;;;;17.70;99.70;;;;;;5112297;28;19908;-71
2023/10/13 08:48:07;;;;;;;;;;;17.90;99.50;;;;;;5118565;27;19975;-71
2023/10/13 08:50:55;;;;;;;;;;;17.90;99.50;;;;;;5108386;27;20584;-71
2023/10/13 09:10:11;;;;;;;;;;;18.10;99.60;;;;;;5109834;28;19912;-70
2023/10/13 09:12:17;;;;;;;;;;;18.20;99.60;;;;;;5106990;27;20330;-71
2023/10/13 09:14:44;;;;;;;;;;;18.20;99.80;;;;;;5105495;28;20570;-70
2023/10/13 09:17:22;;;;;;;;;;;18.30;99.60;;;;;;5101059;27;20233;-71
2023/10/13 09:19:55;;;;;;;;;;;18.30;99.90;;;;;;5117382;27;20281;-71
2023/10/13 09:22:28;;;;;;;;;;;18.30;99.60;;;;;;5109660;27;20029;-70
2023/10/13 09:24:56;;;;;;;;;;;18.40;99.70;;;;;;5108941;28;19912;-71
2023/10/13 09:27:26;;;;;;;;;;;18.40;99.50;;;;;;5106455;28;20486;-71
2023/10/13 09:29:56;;;;;;;;;;;18.50;99.80;;;;;;5109291;28;20534;-71
2023/10/13 09:32:21;;;;;;;;;;;18.50;99.80;;;;;;5109077;28;20292;-72
2023/10/13 09:34:48;;;;;;;;;;;18.60;99.80;;;;;;5109021;27;19911;-71
2023/10/13 09:37:20;;;;;;;;;;;18.60;99.90;;;;;;5109282;28;19908;-70
2023/10/13 09:39:48;;;;;;;;;;;18.60;99.80;;;;;;5108119;28;20549;-71
2023/10/13 09:42:16;;;;;;;;;;;18.60;99.70;;;;;;5110481;27;19915;-70
2023/10/13 09:44:49;;;;;;;;;;;18.70;99.70;;;;;;5098007;28;19939;-71
2023/10/13 09:47:19;;;;;;;;;;;18.70;99.70;;;;;;5101625;28;20011;-71
2023/10/13 09:49:45;;;;;;;;;;;18.70;99.60;;;;;;5108276;28;20450;-71
2023/10/13 09:52:25;;;;;;;;;;;18.80;99.70;;;;;;5108982;28;20399;-70
2023/10/13 09:55:10;;;;;;;;;;;18.80;99.60;;;;;;5108221;28;19911;-71
2023/10/13 09:57:40;;;;;;;;;;;18.80;99.50;;;;;;5098484;28;19961;-71
2023/10/13 10:00:28;;;;;;;;;;;18.80;99.60;;;;;;5108576;28;19965;-70
2023/10/13 10:02:58;;;;;;;;;;;18.90;99.60;;;;;;5108443;28;19958;-70
2023/10/13 10:05:25;;;;;;;;;;;18.90;99.50;;;;;;5108102;28;19915;-70
2023/10/13 10:07:58;;;;;;;;;;;18.90;99.50;;;;;;5107535;28;19911;-71
2023/10/13 10:10:44;;;;;;;;;;;19.00;99.60;;;;;;5110955;28;19961;-71
2023/10/13 10:13:34;;;;;;;;;;;19.00;99.50;;;;;;5098344;28;19912;-71
2023/10/13 10:16:03;;;;;;;;;;;19.00;99.40;;;;;;5115513;27;19953;-72
2023/10/13 10:18:28;;;;;;;;;;;19.10;99.40;;;;;;5107265;28;20003;-71
2023/10/13 10:21:07;;;;;;;;;;;19.10;99.20;;;;;;5108570;28;20002;-71
2023/10/13 10:23:36;;;;;;;;;;;19.10;99.50;;;;;;5108364;28;19912;-71
2023/10/13 10:26:15;;;;;;;;;;;19.20;99.30;;;;;;5108824;28;21178;-70
2023/10/13 10:28:41;;;;;;;;;;;19.20;99.30;;;;;;5116811;28;19996;-71
2023/10/13 10:31:16;;;;;;;;;;;19.20;99.30;;;;;;5108194;28;19947;-71
2023/10/13 10:33:42;;;;;;;;;;;19.30;99.40;;;;;;5111362;27;19939;-71
2023/10/13 10:36:14;;;;;;;;;;;19.30;99.30;;;;;;5099187;28;19911;-70
2023/10/13 10:38:54;;;;;;;;;;;19.30;99.30;;;;;;5117122;27;19914;-70
2023/10/13 10:41:25;;;;;;;;;;;19.30;99.50;;;;;;5105685;28;19908;-70
2023/10/13 10:43:51;;;;;;;;;;;19.30;99.20;;;;;;5112228;28;19911;-70
2023/10/13 10:46:27;;;;;;;;;;;19.40;99.30;;;;;;5107052;28;20007;-71
2023/10/13 10:49:00;;;;;;;;;;;19.40;99.20;;;;;;5110486;28;19911;-70
2023/10/13 10:51:31;;;;;;;;;;;19.50;99.20;;;;;;5121015;27;19916;-71
2023/10/13 10:53:57;;;;;;;;;;;19.50;99.00;;;;;;5106336;27;19935;-71
2023/10/13 10:56:36;;;;;;;;;;;19.60;99.00;;;;;;5111774;28;20022;-71
2023/10/13 10:59:04;;;;;;;;;;;19.60;99.10;;;;;;5111778;28;19911;-71
2023/10/13 11:01:46;;;;;;;;;;;19.60;99.00;;;;;;5111227;28;20279;-71
2023/10/13 11:06:46;;;;;;;;;;;19.70;99.00;;;;;;5111849;28;19935;-71
2023/10/13 11:09:18;;;;;;;;;;;19.70;98.90;;;;;;5110823;27;20040;-71
2023/10/13 11:11:52;;;;;;;;;;;19.80;98.80;;;;;;5112362;28;19968;-70
2023/10/13 11:14:25;;;;;;;;;;;19.80;98.90;;;;;;5111101;28;19927;-70
2023/10/13 11:16:51;;;;;;;;;;;19.90;99.00;;;;;;5119855;27;19965;-71
2023/10/13 11:19:20;;;;;;;;;;;19.90;99.00;;;;;;5111318;28;19912;-71
2023/10/13 11:21:47;;;;;;;;;;;19.90;99.00;;;;;;5117686;27;19915;-70
2023/10/13 11:24:13;;;;;;;;;;;19.90;98.70;;;;;;5110962;28;20345;-71
2023/10/13 11:26:57;;;;;;;;;;;20.10;98.90;;;;;;5110956;28;19960;-70
2023/10/13 11:29:33;;;;;;;;;;;20.00;98.60;;;;;;5105862;28;19938;-70
2023/10/13 11:32:00;;;;;;;;;;;20.10;98.80;;;;;;5111150;27;19911;-70
2023/10/13 11:34:30;;;;;;;;;;;20.10;98.60;;;;;;5111596;27;20352;-71
2023/10/13 11:36:55;;;;;;;;;;;20.10;98.70;;;;;;5102142;28;20613;-71
2023/10/13 11:39:30;;;;;;;;;;;20.20;98.60;;;;;;5111630;28;19915;-70
2023/10/13 11:41:55;;;;;;;;;;;20.20;98.70;;;;;;5112036;27;19953;-70
2023/10/13 11:49:18;;;;;;;;;;;20.30;98.50;;;;;;5110977;28;19964;-71
2023/10/13 11:51:45;;;;;;;;;;;20.30;98.50;;;;;;5110074;28;19915;-70
2023/10/13 11:54:11;;;;;;;;;;;20.40;98.50;;;;;;5098507;28;20566;-70
2023/10/13 11:56:38;;;;;;;;;;;20.40;98.40;;;;;;5105823;28;19915;-71
2023/10/13 11:59:05;;;;;;;;;;;20.40;98.40;;;;;;5110341;28;19919;-70
2023/10/13 12:04:33;;;;;;;;;;;20.60;98.40;;;;;;5111179;28;19922;-70
2023/10/13 12:07:14;;;;;;;;;;;20.60;98.20;;;;;;5108014;28;19999;-71
2023/10/13 12:12:42;;;;;;;;;;;20.70;98.70;;;;;;5097410;27;19947;-70
2023/10/13 12:15:36;;;;;;;;;;;20.80;98.90;;;;;;5114611;27;20259;-70
2023/10/13 12:18:03;;;;;;;;;;;20.80;98.20;;;;;;5136559;27;19908;-70
2023/10/13 12:20:36;;;;;;;;;;;20.90;98.20;;;;;;5110778;28;19939;-71
2023/10/13 12:23:15;;;;;;;;;;;20.90;98.50;;;;;;5110860;28;19912;-70
2023/10/13 12:28:26;;;;;;;;;;;21.10;99.30;;;;;;5104684;28;19927;-70
2023/10/13 12:30:53;;;;;;;;;;;21.10;99.20;;;;;;5110379;28;19958;-70
2023/10/13 12:33:25;;;;;;;;;;;21.20;99.30;;;;;;5107122;28;19961;-70
2023/10/13 12:36:08;;;;;;;;;;;21.20;98.60;;;;;;5110811;28;19919;-70
2023/10/13 12:49:49;;;;;;;;;;;21.50;98.10;;;;;;5110645;27;19918;-71
2023/10/13 12:52:19;;;;;;;;;;;21.50;98.10;;;;;;5102494;28;19916;-70
2023/10/13 12:54:58;;;;;;;;;;;21.60;97.70;;;;;;5110259;28;19960;-70
2023/10/13 12:57:27;;;;;;;;;;;21.60;97.60;;;;;;5109209;28;20292;-70
2023/10/13 12:59:53;;;;;;;;;;;21.60;97.50;;;;;;5117001;27;19911;-71
2023/10/13 13:02:24;;;;;;;;;;;21.60;97.30;;;;;;5109264;28;19931;-71
2023/10/13 13:05:28;;;;;;;;;;;21.60;97.70;;;;;;5115838;27;19912;-70
2023/10/13 13:07:52;;;;;;;;;;;21.60;97.90;;;;;;5117277;27;20637;-71
2023/10/13 13:10:18;;;;;;;;;;;21.60;97.70;;;;;;5101592;28;19958;-70
2023/10/13 13:12:44;;;;;;;;;;;21.50;98.00;;;;;;5109219;28;19943;-71
2023/10/13 13:15:11;;;;;;;;;;;21.60;97.50;;;;;;5097240;28;19915;-71
2023/10/13 13:17:40;;;;;;;;;;;21.60;97.60;;;;;;5093213;28;20003;-71
2023/10/13 13:20:11;;;;;;;;;;;21.70;97.40;;;;;;5103085;27;20441;-71
2023/10/13 13:22:40;;;;;;;;;;;21.70;97.40;;;;;;5120688;27;19917;-70
2023/10/13 13:25:09;;;;;;;;;;;21.60;97.40;;;;;;5109794;27;19915;-70
2023/10/13 13:27:36;;;;;;;;;;;21.60;97.30;;;;;;5109391;28;19915;-70
2023/10/13 13:30:03;;;;;;;;;;;21.60;97.70;;;;;;5108007;28;19922;-70
2023/10/13 13:32:28;;;;;;;;;;;21.60;97.60;;;;;;5124315;27;19915;-71
2023/10/13 13:35:04;;;;;;;;;;;21.60;97.50;;;;;;5111684;27;21979;-71
2023/10/13 13:37:30;;;;;;;;;;;21.60;97.40;;;;;;5114847;27;19951;-72
2023/10/13 13:39:56;;;;;;;;;;;21.60;97.40;;;;;;5126408;27;19912;-71
2023/10/13 13:42:22;;;;;;;;;;;21.60;97.50;;;;;;5109805;28;19915;-71
2023/10/13 13:44:47;;;;;;;;;;;21.60;97.30;;;;;;5109203;28;20018;-71
2023/10/13 13:47:13;;;;;;;;;;;21.60;97.30;;;;;;5110388;28;19907;-71
2023/10/13 13:49:51;;;;;;;;;;;21.60;97.30;;;;;;5109598;28;20371;-71
2023/10/13 13:52:21;;;;;;;;;;;21.70;97.40;;;;;;5106564;28;19921;-72
2023/10/13 13:54:47;;;;;;;;;;;21.60;97.20;;;;;;5112702;27;19912;-71
2023/10/13 13:57:13;;;;;;;;;;;21.60;97.00;;;;;;5108395;28;20332;-71
2023/10/13 13:59:39;;;;;;;;;;;21.60;96.90;;;;;;5108729;28;19916;-71
2023/10/13 14:02:18;;;;;;;;;;;21.60;96.70;;;;;;5112404;27;20018;-71
2023/10/13 14:04:46;;;;;;;;;;;21.60;97.10;;;;;;5112028;28;19939;-72
2023/10/13 14:07:14;;;;;;;;;;;21.50;97.30;;;;;;5101703;28;19934;-72
2023/10/13 14:09:42;;;;;;;;;;;21.50;97.00;;;;;;5110129;28;20295;-71
2023/10/13 14:14:55;;;;;;;;;;;21.60;97.10;;;;;;5113730;28;20249;-72
2023/10/13 14:17:28;;;;;;;;;;;21.60;97.20;;;;;;5113121;28;19916;-71
2023/10/13 14:19:57;;;;;;;;;;;21.60;97.20;;;;;;5113027;28;19919;-71
2023/10/13 14:22:24;;;;;;;;;;;21.60;96.90;;;;;;5114623;28;19908;-71
2023/10/13 14:24:54;;;;;;;;;;;21.60;97.20;;;;;;5122569;27;19908;-71
2023/10/13 14:27:22;;;;;;;;;;;21.60;97.10;;;;;;5113922;28;19916;-71
2023/10/13 14:29:52;;;;;;;;;;;21.60;96.60;;;;;;5113989;27;19919;-71
2023/10/13 14:32:18;;;;;;;;;;;21.60;96.90;;;;;;5112647;28;19931;-71
2023/10/13 14:34:45;;;;;;;;;;;21.60;97.20;;;;;;5112963;28;19916;-71
2023/10/13 14:37:20;;;;;;;;;;;21.50;96.90;;;;;;5117249;27;20375;-71
2023/10/13 14:39:46;;;;;;;;;;;21.50;97.20;;;;;;5116871;27;19955;-72
2023/10/13 14:42:12;;;;;;;;;;;21.60;97.10;;;;;;5120648;27;20012;-72
2023/10/13 14:44:37;;;;;;;;;;;21.50;96.60;;;;;;5112142;28;19937;-72
2023/10/13 14:47:05;;;;;;;;;;;21.50;96.80;;;;;;5123261;27;19943;-71
2023/10/13 14:49:31;;;;;;;;;;;21.50;97.10;;;;;;5126550;27;20368;-71
2023/10/13 14:51:59;;;;;;;;;;;21.40;97.10;;;;;;5113884;27;19915;-71
2023/10/13 14:54:34;;;;;;;;;;;21.40;96.90;;;;;;5114865;27;19916;-71
2023/10/13 14:57:02;;;;;;;;;;;21.40;97.10;;;;;;5111985;27;19908;-71
2023/10/13 14:59:32;;;;;;;;;;;21.40;97.30;;;;;;5112897;28;19907;-71
2023/10/13 15:01:59;;;;;;;;;;;21.30;96.60;;;;;;5113034;28;20404;-71
2023/10/13 15:04:24;;;;;;;;;;;21.30;97.30;;;;;;5114309;27;19912;-72
2023/10/13 15:06:50;;;;;;;;;;;21.20;96.20;;;;;;5120756;27;20011;-72
2023/10/13 15:09:23;;;;;;;;;;;21.20;96.60;;;;;;5123746;27;19919;-71
2023/10/13 15:11:49;;;;;;;;;;;21.20;97.00;;;;;;5115416;27;19965;-71
2023/10/13 15:14:14;;;;;;;;;;;21.20;96.90;;;;;;5121176;27;19988;-71
2023/10/13 15:16:42;;;;;;;;;;;21.10;97.30;;;;;;5121356;27;19912;-71
2023/10/13 15:19:09;;;;;;;;;;;21.10;97.20;;;;;;5115586;27;20588;-71
2023/10/13 15:21:35;;;;;;;;;;;21.10;96.70;;;;;;5124786;27;19908;-71
2023/10/13 15:24:04;;;;;;;;;;;21.00;96.90;;;;;;5120788;27;19911;-71
2023/10/13 15:26:30;;;;;;;;;;;21.00;97.10;;;;;;5116967;27;20356;-72
2023/10/13 15:28:57;;;;;;;;;;;21.00;96.70;;;;;;5111269;28;19923;-72
2023/10/13 15:31:25;;;;;;;;;;;21.00;97.00;;;;;;5114921;27;19911;-72
2023/10/13 15:33:54;;;;;;;;;;;20.90;97.00;;;;;;5110297;27;19918;-71
2023/10/13 15:36:20;;;;;;;;;;;20.90;96.80;;;;;;5116379;27;19916;-71
2023/10/13 15:38:46;;;;;;;;;;;20.90;97.10;;;;;;5102358;28;19911;-71
2023/10/13 15:41:21;;;;;;;;;;;20.90;97.20;;;;;;5101007;28;19981;-71
2023/10/13 15:43:49;;;;;;;;;;;20.80;97.10;;;;;;5110568;28;19918;-71
2023/10/13 15:46:16;;;;;;;;;;;20.80;96.60;;;;;;5110017;27;19984;-72
2023/10/13 15:48:41;;;;;;;;;;;20.80;96.60;;;;;;5111368;28;19911;-71
2023/10/13 15:51:12;;;;;;;;;;;20.80;96.90;;;;;;5113095;27;19968;-72
2023/10/13 15:53:38;;;;;;;;;;;20.80;97.10;;;;;;5122577;27;19912;-72
2023/10/13 15:56:11;;;;;;;;;;;20.80;96.80;;;;;;5110622;27;19907;-71
2023/10/13 15:58:45;;;;;;;;;;;20.70;96.90;;;;;;5111013;28;19999;-71
2023/10/13 16:01:12;;;;;;;;;;;20.70;96.90;;;;;;5110220;28;19912;-71
2023/10/13 16:03:43;;;;;;;;;;;20.70;97.00;;;;;;5110302;27;19908;-71
2023/10/13 16:06:12;;;;;;;;;;;20.60;97.10;;;;;;5110185;28;19915;-72
2023/10/13 16:08:38;;;;;;;;;;;20.60;96.90;;;;;;5118272;27;19911;-71
2023/10/13 16:11:07;;;;;;;;;;;20.60;97.10;;;;;;5111914;27;20437;-71
2023/10/13 16:13:33;;;;;;;;;;;20.60;96.80;;;;;;5109323;28;20229;-71
2023/10/13 16:16:00;;;;;;;;;;;20.50;96.90;;;;;;5118006;27;19954;-71
2023/10/13 16:18:26;;;;;;;;;;;20.60;97.00;;;;;;5110506;28;20023;-71
2023/10/13 16:20:51;;;;;;;;;;;20.50;96.70;;;;;;5111121;27;19979;-71
2023/10/13 16:23:17;;;;;;;;;;;20.50;97.10;;;;;;5126206;27;19916;-72
2023/10/13 16:25:43;;;;;;;;;;;20.50;97.10;;;;;;5109462;27;19958;-72
2023/10/13 16:28:12;;;;;;;;;;;20.50;96.40;;;;;;5108742;28;19916;-72
2023/10/13 16:30:37;;;;;;;;;;;20.50;97.00;;;;;;5100947;28;19916;-72
2023/10/13 16:33:03;;;;;;;;;;;20.50;97.20;;;;;;5109782;27;20267;-72
2023/10/13 16:35:33;;;;;;;;;;;20.40;97.00;;;;;;5095314;28;19914;-71
2023/10/13 16:37:59;;;;;;;;;;;20.40;97.10;;;;;;5098794;28;19915;-71
2023/10/13 16:40:24;;;;;;;;;;;20.40;96.70;;;;;;5108682;28;19907;-71
2023/10/13 16:42:52;;;;;;;;;;;20.40;96.80;;;;;;5116721;27;20389;-72
2023/10/13 16:45:21;;;;;;;;;;;20.30;97.20;;;;;;5120356;27;19912;-71
2023/10/13 16:47:47;;;;;;;;;;;20.30;96.80;;;;;;5112727;27;19957;-71
2023/10/13 16:50:14;;;;;;;;;;;20.30;97.10;;;;;;5109517;27;19916;-71
2023/10/13 16:52:40;;;;;;;;;;;20.30;97.20;;;;;;5118066;27;19908;-71
2023/10/13 16:55:08;;;;;;;;;;;20.30;97.20;;;;;;5108631;28;19908;-71
2023/10/13 16:57:34;;;;;;;;;;;20.20;97.60;;;;;;5110192;28;19915;-71
2023/10/13 17:00:05;;;;;;;;;;;20.20;97.20;;;;;;5109165;27;19911;-71
2023/10/13 17:02:31;;;;;;;;;;;20.20;97.30;;;;;;5105585;27;19916;-71
2023/10/13 17:04:57;;;;;;;;;;;20.20;97.30;;;;;;5106203;28;20387;-71
2023/10/13 17:07:24;;;;;;;;;;;20.20;97.40;;;;;;5112629;27;19912;-71
2023/10/13 17:09:50;;;;;;;;;;;20.10;97.40;;;;;;5105830;28;19920;-71
2023/10/13 17:12:15;;;;;;;;;;;20.10;97.40;;;;;;5113227;27;20312;-71
2023/10/13 17:14:41;;;;;;;;;;;20.10;97.50;;;;;;5113826;27;19912;-71
2023/10/13 17:17:08;;;;;;;;;;;20.10;97.50;;;;;;5109412;28;19950;-72
2023/10/13 17:19:33;;;;;;;;;;;20.10;97.50;;;;;;5109599;28;20128;-71
2023/10/13 17:21:59;;;;;;;;;;;20.10;97.50;;;;;;5106163;28;19908;-71
2023/10/13 17:24:24;;;;;;;;;;;20.00;97.40;;;;;;5101997;28;19911;-71
2023/10/13 17:26:50;;;;;;;;;;;20.00;97.50;;;;;;5100125;28;19931;-72
2023/10/13 17:29:15;;;;;;;;;;;20.00;97.50;;;;;;5112793;27;19916;-71
2023/10/13 17:31:41;;;;;;;;;;;20.00;97.60;;;;;;5096466;28;19960;-71
2023/10/13 17:34:06;;;;;;;;;;;19.90;97.60;;;;;;5113590;27;20295;-71
2023/10/13 17:36:32;;;;;;;;;;;19.90;97.60;;;;;;5123207;27;19933;-71
2023/10/13 17:38:57;;;;;;;;;;;19.90;97.60;;;;;;5108595;28;19911;-71
2023/10/13 17:41:24;;;;;;;;;;;19.80;97.60;;;;;;5108983;28;19977;-71
2023/10/13 17:43:49;;;;;;;;;;;19.80;97.50;;;;;;5108522;28;19931;-71
2023/10/13 17:46:15;;;;;;;;;;;19.80;97.50;;;;;;5110852;27;20656;-71
2023/10/13 17:48:41;;;;;;;;;;;19.80;97.60;;;;;;5111090;28;19919;-71
2023/10/13 17:51:08;;;;;;;;;;;19.80;97.60;;;;;;5115768;27;20435;-71